Terminal Aerodrome Forecast
Issued by NWS Wakefield, VA

Current Version | Previous Version | Text Only | Print | Product List | Glossary On
Versions: 1 2 3 4 5 6 7 8 9 10 11 12 13 14
794
FTUS41 KAKQ 272323
TAFECG
TAF
KECG 272323Z 2800/2824 04011KT P6SM BKN200
     FM280200 24004KT P6SM SCT200
     FM280800 34004KT P6SM SKC
     FM281200 02009KT P6SM SKC=

USA.gov is the U.S. government's official web portal to all federal, state and local government web resources and services.